Time;durP1;ratioP1;P1;durP2;ratioP2;P2;SDS_P1;SDS_P2;PMS_P1;PMS_P2;Temp;Humidity;BMP_temperature;BMP_pressure;BME280_temperature;BME280_humidity;BME280_pressure;Samples;Min_cycle;Max_cycle;Signal;HPM_P1;HPM_P2
2023/08/01 00:01:49;;;;;;;1.85;1.20;;;19.00;91.00;;;;;;5021086;28;20034;-82
2023/08/01 00:04:14;;;;;;;2.67;1.35;;;19.00;91.00;;;;;;5020510;28;20448;-79
2023/08/01 00:06:40;;;;;;;2.85;1.48;;;19.00;90.90;;;;;;5018740;28;20485;-81
2023/08/01 00:09:05;;;;;;;2.53;1.20;;;19.00;90.90;;;;;;5001549;28;20132;-79
2023/08/01 00:11:31;;;;;;;2.05;1.25;;;19.00;90.90;;;;;;5000329;28;20088;-79
2023/08/01 00:13:56;;;;;;;1.70;1.08;;;19.00;90.90;;;;;;5018930;28;20026;-79
2023/08/01 00:16:22;;;;;;;2.10;1.20;;;19.00;90.80;;;;;;5004371;28;20532;-77
2023/08/01 00:18:47;;;;;;;1.42;1.00;;;19.10;90.90;;;;;;5016937;28;20028;-79
2023/08/01 00:21:12;;;;;;;2.13;1.13;;;19.10;90.90;;;;;;5038018;28;20021;-78
2023/08/01 00:23:38;;;;;;;2.20;1.27;;;19.10;90.90;;;;;;5034824;28;20028;-80
2023/08/01 00:26:04;;;;;;;1.75;1.20;;;19.10;90.90;;;;;;5012153;28;20026;-79
2023/08/01 00:28:30;;;;;;;2.35;1.20;;;19.10;90.90;;;;;;5027441;28;20079;-79
2023/08/01 00:31:22;;;;;;;2.20;1.25;;;19.00;90.80;;;;;;5035301;28;20136;-79
2023/08/01 00:33:48;;;;;;;1.85;1.25;;;19.00;90.90;;;;;;5033278;28;20103;-78
2023/08/01 00:36:13;;;;;;;1.50;1.10;;;19.00;90.90;;;;;;5024002;28;20485;-79
2023/08/01 00:38:39;;;;;;;2.50;1.33;;;19.00;90.90;;;;;;5017803;28;20044;-79
2023/08/01 00:41:04;;;;;;;1.88;1.20;;;19.00;91.00;;;;;;5017810;28;20080;-78
2023/08/01 00:43:30;;;;;;;2.47;1.60;;;19.00;91.00;;;;;;5035137;28;20112;-79
2023/08/01 00:46:02;;;;;;;1.38;1.00;;;19.00;91.00;;;;;;5008533;28;20032;-79
2023/08/01 00:48:29;;;;;;;3.35;1.25;;;18.90;91.00;;;;;;5033760;28;20033;-78
2023/08/01 00:50:56;;;;;;;2.13;1.13;;;19.00;91.00;;;;;;5035182;28;20032;-79
2023/08/01 00:53:21;;;;;;;1.75;1.00;;;18.90;91.00;;;;;;5035018;28;20025;-76
2023/08/01 00:55:47;;;;;;;1.35;1.00;;;19.00;91.00;;;;;;5023346;28;20033;-78
2023/08/01 00:58:13;;;;;;;2.03;1.10;;;18.90;91.00;;;;;;5028886;28;20029;-78
2023/08/01 01:00:39;;;;;;;2.28;1.42;;;18.90;91.00;;;;;;5019046;28;20512;-79
2023/08/01 01:03:05;;;;;;;2.35;1.35;;;18.90;91.00;;;;;;5016428;28;20524;-80
2023/08/01 01:05:36;;;;;;;1.58;1.00;;;18.90;91.00;;;;;;5016104;28;20489;-79
2023/08/01 01:08:03;;;;;;;1.70;1.10;;;18.90;91.00;;;;;;5016836;28;20025;-79
2023/08/01 01:10:29;;;;;;;2.03;1.10;;;18.90;91.00;;;;;;5033920;28;20026;-79
2023/08/01 01:12:55;;;;;;;1.48;1.00;;;18.90;91.00;;;;;;5032411;28;20486;-79
2023/08/01 01:15:20;;;;;;;1.85;1.10;;;18.90;91.00;;;;;;5028412;28;20017;-77
2023/08/01 01:17:46;;;;;;;1.65;1.00;;;18.90;91.00;;;;;;5015695;28;20083;-79
2023/08/01 01:20:11;;;;;;;2.17;1.20;;;18.90;91.00;;;;;;5033962;28;20022;-78
2023/08/01 01:22:38;;;;;;;2.45;1.20;;;18.90;91.00;;;;;;5015830;28;20043;-79
2023/08/01 01:25:05;;;;;;;2.00;1.00;;;18.90;91.00;;;;;;5015098;28;20030;-79
2023/08/01 01:27:32;;;;;;;1.58;1.00;;;18.90;91.00;;;;;;5016016;28;20041;-79
2023/08/01 01:29:58;;;;;;;1.70;1.00;;;18.90;91.00;;;;;;5033851;28;20029;-78
2023/08/01 01:32:24;;;;;;;2.42;1.10;;;18.90;91.00;;;;;;5032662;28;20552;-75
2023/08/01 01:34:50;;;;;;;1.30;0.93;;;18.90;90.90;;;;;;5031762;28;20088;-79
2023/08/01 01:37:15;;;;;;;2.08;1.20;;;19.00;91.00;;;;;;5015699;28;20017;-79
2023/08/01 01:39:40;;;;;;;1.40;1.00;;;18.90;91.00;;;;;;5014892;28;20052;-80
2023/08/01 01:42:06;;;;;;;1.38;0.90;;;19.00;90.90;;;;;;5015627;28;20053;-78
2023/08/01 01:44:32;;;;;;;1.65;1.10;;;19.00;90.90;;;;;;5013948;28;20029;-80
2023/08/01 01:46:57;;;;;;;1.40;0.93;;;19.00;90.90;;;;;;5034440;28;20022;-83
2023/08/01 01:49:24;;;;;;;1.95;1.00;;;19.00;90.80;;;;;;5033714;28;20024;-79
2023/08/01 01:51:50;;;;;;;1.23;0.98;;;19.00;90.80;;;;;;5031586;28;20072;-80
2023/08/01 01:54:15;;;;;;;1.92;1.00;;;19.00;90.80;;;;;;5047268;28;20025;-82
2023/08/01 01:56:41;;;;;;;1.67;1.15;;;19.00;90.80;;;;;;5034469;28;20052;-81
2023/08/01 01:59:06;;;;;;;1.42;1.05;;;19.10;90.80;;;;;;5039067;28;20515;-82
2023/08/01 02:01:32;;;;;;;2.25;1.00;;;19.10;90.80;;;;;;5031807;28;20032;-82
2023/08/01 02:03:57;;;;;;;1.88;1.17;;;19.00;90.80;;;;;;5028355;28;20048;-80
2023/08/01 02:06:23;;;;;;;1.67;0.95;;;19.00;90.90;;;;;;5025238;28;20366;-79
2023/08/01 02:08:48;;;;;;;1.90;0.98;;;19.00;90.90;;;;;;5047119;28;20056;-83
2023/08/01 02:11:14;;;;;;;2.20;1.10;;;19.00;90.80;;;;;;5048928;28;20394;-80
2023/08/01 02:13:39;;;;;;;1.15;0.90;;;19.00;90.80;;;;;;5030156;28;20022;-81
2023/08/01 02:16:05;;;;;;;1.73;1.00;;;18.90;90.80;;;;;;5047000;28;20482;-83
2023/08/01 02:18:30;;;;;;;1.23;0.90;;;18.90;90.90;;;;;;5032782;28;20037;-80
2023/08/01 02:20:56;;;;;;;1.35;0.93;;;18.90;90.90;;;;;;5047180;28;20040;-82
2023/08/01 02:23:21;;;;;;;1.45;0.90;;;18.90;90.90;;;;;;5046872;28;20029;-81
2023/08/01 02:25:47;;;;;;;1.30;1.05;;;18.90;91.00;;;;;;5042131;28;20033;-82
2023/08/01 02:28:12;;;;;;;1.48;1.00;;;18.90;91.00;;;;;;5034526;28;20040;-78
2023/08/01 02:30:38;;;;;;;1.70;1.10;;;18.90;91.00;;;;;;5049076;28;20033;-83
2023/08/01 02:33:04;;;;;;;1.67;1.02;;;18.90;91.00;;;;;;5049065;28;20029;-82
2023/08/01 02:35:29;;;;;;;1.83;1.00;;;18.90;91.00;;;;;;5027464;28;20016;-79
2023/08/01 02:37:55;;;;;;;2.33;1.38;;;18.90;91.00;;;;;;5047621;28;20028;-81
2023/08/01 02:40:21;;;;;;;1.88;1.00;;;18.90;91.00;;;;;;5038078;28;20453;-80
2023/08/01 02:42:46;;;;;;;1.60;0.93;;;18.90;91.00;;;;;;5045976;28;20021;-80
2023/08/01 02:45:12;;;;;;;1.40;1.00;;;18.90;91.00;;;;;;5045359;28;20051;-80
2023/08/01 02:47:37;;;;;;;1.48;1.10;;;18.90;91.00;;;;;;5033086;28;20505;-80
2023/08/01 02:50:04;;;;;;;1.25;1.00;;;18.90;91.00;;;;;;5045653;28;20071;-79
2023/08/01 02:52:30;;;;;;;1.50;0.98;;;18.90;91.00;;;;;;5027060;28;20513;-82
2023/08/01 02:54:55;;;;;;;1.17;0.80;;;18.90;91.00;;;;;;5043418;28;20010;-80
2023/08/01 02:57:21;;;;;;;1.65;0.98;;;18.90;91.00;;;;;;5029580;28;20028;-79
2023/08/01 02:59:46;;;;;;;1.80;1.00;;;18.90;91.00;;;;;;5042959;28;20025;-81
2023/08/01 03:02:12;;;;;;;1.48;1.02;;;18.90;91.00;;;;;;5042850;28;20104;-82
2023/08/01 03:04:38;;;;;;;1.98;1.15;;;18.80;90.90;;;;;;5042359;28;20021;-80
2023/08/01 03:07:03;;;;;;;1.40;0.80;;;18.90;91.00;;;;;;5006807;28;20022;-79
2023/08/01 03:09:29;;;;;;;2.63;1.10;;;18.90;90.90;;;;;;5021618;28;20491;-78
2023/08/01 03:11:54;;;;;;;1.63;1.00;;;18.90;90.90;;;;;;5021595;28;20030;-79
2023/08/01 03:14:20;;;;;;;2.08;1.05;;;18.90;90.90;;;;;;5022060;28;20139;-79
2023/08/01 03:16:45;;;;;;;1.88;1.00;;;18.90;90.90;;;;;;5020757;28;20084;-79
2023/08/01 03:19:11;;;;;;;1.15;0.90;;;19.00;90.90;;;;;;5019377;28;20033;-80
2023/08/01 03:21:36;;;;;;;1.25;1.00;;;19.00;90.90;;;;;;5014716;28;20021;-83
2023/08/01 03:24:08;;;;;;;1.60;0.95;;;19.00;90.80;;;;;;5015753;28;20092;-80
2023/08/01 03:26:34;;;;;;;1.85;1.10;;;19.00;90.80;;;;;;5030908;28;20033;-80
2023/08/01 03:29:00;;;;;;;1.48;0.90;;;19.00;90.80;;;;;;5015012;28;20764;-79
2023/08/01 03:31:25;;;;;;;1.40;1.00;;;19.00;90.80;;;;;;5015037;28;20017;-80
2023/08/01 03:33:51;;;;;;;1.20;0.90;;;19.00;90.80;;;;;;5019618;28;20128;-80
2023/08/01 03:36:16;;;;;;;1.40;0.80;;;19.00;90.80;;;;;;5019331;28;20120;-80
2023/08/01 03:38:43;;;;;;;1.33;0.90;;;19.00;90.70;;;;;;5025435;28;20025;-82
2023/08/01 03:41:08;;;;;;;1.23;0.90;;;19.00;90.80;;;;;;5030819;28;20021;-84
2023/08/01 03:43:34;;;;;;;1.48;0.85;;;19.00;90.90;;;;;;5038987;28;20045;-83
2023/08/01 03:45:59;;;;;;;1.40;0.90;;;19.00;90.80;;;;;;5030094;28;20030;-82
2023/08/01 03:48:25;;;;;;;1.63;1.00;;;18.90;90.80;;;;;;5019866;28;20393;-78
2023/08/01 03:50:50;;;;;;;1.77;1.08;;;18.90;90.80;;;;;;5026657;28;20025;-80
2023/08/01 03:53:16;;;;;;;0.75;0.70;;;18.90;90.90;;;;;;5035520;28;20112;-79
2023/08/01 03:55:44;;;;;;;1.17;0.80;;;18.90;90.90;;;;;;5021797;28;20022;-81
2023/08/01 03:58:09;;;;;;;1.17;1.05;;;18.90;91.00;;;;;;5000924;28;20534;-80
2023/08/01 04:00:35;;;;;;;1.27;0.90;;;18.90;91.00;;;;;;4999991;28;20072;-82
2023/08/01 04:03:01;;;;;;;1.67;1.00;;;18.90;91.00;;;;;;4999522;28;20125;-80
2023/08/01 04:05:27;;;;;;;1.20;0.80;;;18.90;91.00;;;;;;5002163;28;20033;-77
2023/08/01 04:07:54;;;;;;;1.52;0.90;;;18.90;91.00;;;;;;5029642;28;20494;-79
2023/08/01 04:10:23;;;;;;;1.23;0.90;;;18.90;91.00;;;;;;5031166;28;20030;-83
2023/08/01 04:12:49;;;;;;;1.50;1.00;;;18.90;91.00;;;;;;5014383;28;20380;-85
2023/08/01 04:15:15;;;;;;;1.25;0.95;;;18.90;91.00;;;;;;5009776;28;20029;-78
2023/08/01 04:17:40;;;;;;;1.60;0.90;;;18.90;91.00;;;;;;5009505;28;20038;-80
2023/08/01 04:20:06;;;;;;;1.77;1.00;;;18.80;91.00;;;;;;5013711;28;20072;-79
2023/08/01 04:22:32;;;;;;;0.85;0.80;;;18.90;91.00;;;;;;5031462;28;20025;-78
2023/08/01 04:24:57;;;;;;;2.78;1.10;;;18.80;91.00;;;;;;5011329;28;20044;-78
2023/08/01 04:27:23;;;;;;;2.30;1.20;;;18.80;91.00;;;;;;5029858;28;20488;-81
2023/08/01 04:29:49;;;;;;;2.00;0.90;;;18.80;91.00;;;;;;5018882;28;20025;-78
2023/08/01 04:32:15;;;;;;;2.40;1.00;;;18.80;91.00;;;;;;5012791;28;20037;-78
2023/08/01 04:34:43;;;;;;;1.60;0.93;;;18.80;91.00;;;;;;5011580;28;20413;-78
2023/08/01 04:37:10;;;;;;;1.65;0.90;;;18.80;91.00;;;;;;5004109;28;20053;-79
2023/08/01 04:39:36;;;;;;;1.48;1.00;;;18.80;91.20;;;;;;5030613;28;20112;-80
2023/08/01 04:42:01;;;;;;;1.70;1.10;;;18.90;91.00;;;;;;5013009;28;20120;-78
2023/08/01 04:44:27;;;;;;;1.67;1.00;;;18.80;91.00;;;;;;5030276;28;20548;-79
2023/08/01 04:46:53;;;;;;;1.55;0.93;;;18.90;91.00;;;;;;5027997;28;20041;-78
2023/08/01 04:49:18;;;;;;;1.40;0.98;;;18.90;90.90;;;;;;5010004;28;20382;-79
2023/08/01 04:51:44;;;;;;;1.25;1.00;;;18.90;91.00;;;;;;5028040;28;20025;-79
2023/08/01 04:54:10;;;;;;;1.88;0.95;;;18.90;90.90;;;;;;5028689;28;20118;-77
2023/08/01 04:56:35;;;;;;;2.20;1.10;;;18.90;90.90;;;;;;5010676;28;20089;-77
2023/08/01 04:59:02;;;;;;;1.55;1.00;;;18.90;90.80;;;;;;5028698;28;20029;-77
2023/08/01 05:01:27;;;;;;;1.20;0.90;;;19.00;90.80;;;;;;5030065;28;20022;-78
2023/08/01 05:03:53;;;;;;;1.40;0.90;;;19.00;90.80;;;;;;5028580;28;20029;-80
2023/08/01 05:06:18;;;;;;;1.70;1.17;;;19.00;90.80;;;;;;5016773;28;20033;-77
2023/08/01 05:08:44;;;;;;;1.55;1.00;;;19.00;90.80;;;;;;5026716;28;20061;-80
2023/08/01 05:11:09;;;;;;;1.92;0.93;;;19.00;90.80;;;;;;5027927;28;20120;-78
2023/08/01 05:13:35;;;;;;;1.52;0.90;;;19.00;90.80;;;;;;5028520;28;20029;-83
2023/08/01 05:16:01;;;;;;;1.02;0.85;;;19.00;90.80;;;;;;5020966;28;20539;-82
2023/08/01 05:18:26;;;;;;;1.33;0.90;;;19.00;90.80;;;;;;5035128;28;20045;-85
2023/08/01 05:20:52;;;;;;;1.40;1.00;;;19.00;90.90;;;;;;5024196;28;20025;-81
2023/08/01 05:23:17;;;;;;;1.65;1.15;;;18.90;90.80;;;;;;5016465;28;20053;-82
2023/08/01 05:25:43;;;;;;;2.00;1.17;;;19.00;90.80;;;;;;5013662;28;20485;-79
2023/08/01 05:28:09;;;;;;;1.33;1.00;;;18.90;90.90;;;;;;5013429;28;20025;-82
2023/08/01 05:30:34;;;;;;;1.20;0.93;;;18.90;90.80;;;;;;5032667;28;20034;-79
2023/08/01 05:33:00;;;;;;;1.73;1.10;;;18.90;90.90;;;;;;5032544;28;20124;-83
2023/08/01 05:35:25;;;;;;;1.67;1.10;;;18.90;90.90;;;;;;5035353;28;20806;-83
2023/08/01 05:37:51;;;;;;;2.25;1.20;;;18.90;91.00;;;;;;5018675;28;20026;-80
2023/08/01 05:40:16;;;;;;;1.50;1.00;;;18.90;90.90;;;;;;5045299;28;20075;-80
2023/08/01 05:42:42;;;;;;;3.72;1.35;;;18.80;91.00;;;;;;5049960;28;20022;-81
2023/08/01 05:45:08;;;;;;;2.22;1.20;;;18.90;91.30;;;;;;5044576;28;20030;-82
2023/08/01 05:47:35;;;;;;;3.50;1.10;;;18.90;91.00;;;;;;5040388;28;20029;-81
2023/08/01 05:50:01;;;;;;;4.45;1.48;;;18.80;91.00;;;;;;5028929;28;20052;-79
2023/08/01 05:52:26;;;;;;;2.40;1.20;;;18.80;91.10;;;;;;5037842;28;20014;-79
2023/08/01 05:54:52;;;;;;;3.78;1.35;;;18.80;91.10;;;;;;5029797;28;20026;-81
2023/08/01 05:57:17;;;;;;;2.15;1.20;;;18.80;91.10;;;;;;5030823;28;20525;-79
2023/08/01 05:59:43;;;;;;;3.63;1.20;;;18.80;91.10;;;;;;5030690;28;20048;-80
2023/08/01 06:02:08;;;;;;;3.28;1.38;;;18.80;91.10;;;;;;5048470;28;20029;-81
2023/08/01 06:04:34;;;;;;;3.33;1.30;;;18.90;91.10;;;;;;5046437;28;20029;-81
2023/08/01 06:06:59;;;;;;;3.28;1.17;;;18.80;91.10;;;;;;5048013;28;20042;-81
2023/08/01 06:09:25;;;;;;;2.63;1.48;;;18.90;91.10;;;;;;5047467;28;20060;-79
2023/08/01 06:11:51;;;;;;;2.33;1.10;;;18.80;91.10;;;;;;5044423;28;20405;-80
2023/08/01 06:14:17;;;;;;;2.03;1.10;;;18.80;91.10;;;;;;5044471;28;20028;-79
2023/08/01 06:16:43;;;;;;;2.03;1.30;;;18.90;91.10;;;;;;5018782;28;20097;-78
2023/08/01 06:19:08;;;;;;;2.67;1.13;;;18.80;91.00;;;;;;5024519;28;20478;-80
2023/08/01 06:21:34;;;;;;;3.10;1.38;;;18.80;91.00;;;;;;5008146;28;20034;-80
2023/08/01 06:24:00;;;;;;;2.75;1.40;;;18.80;91.00;;;;;;5006974;28;20478;-79
2023/08/01 06:26:25;;;;;;;3.05;1.40;;;18.90;91.00;;;;;;5038019;28;20071;-79
2023/08/01 06:28:53;;;;;;;2.40;1.20;;;18.90;91.00;;;;;;5028401;28;20029;-80
2023/08/01 06:31:19;;;;;;;2.13;1.10;;;18.90;90.90;;;;;;5042842;28;20502;-81
2023/08/01 06:33:45;;;;;;;3.47;1.30;;;18.90;90.90;;;;;;5041243;28;20490;-80
2023/08/01 06:36:10;;;;;;;2.95;1.48;;;18.90;90.80;;;;;;5039051;28;20021;-79
2023/08/01 06:38:36;;;;;;;2.63;1.25;;;19.00;90.80;;;;;;5028203;28;20045;-78
2023/08/01 06:41:02;;;;;;;4.30;1.48;;;19.00;90.80;;;;;;5042137;28;20025;-79
2023/08/01 06:43:28;;;;;;;2.20;1.33;;;19.00;90.80;;;;;;5040221;28;20033;-78
2023/08/01 06:45:54;;;;;;;2.10;1.15;;;19.00;90.80;;;;;;5032539;28;20025;-78
2023/08/01 06:48:19;;;;;;;2.45;1.20;;;19.00;90.80;;;;;;5020233;28;20479;-82
2023/08/01 06:50:45;;;;;;;2.50;1.27;;;19.00;90.80;;;;;;5003574;28;20165;-79
2023/08/01 06:53:10;;;;;;;2.67;1.20;;;19.00;90.80;;;;;;5003531;28;20025;-79
2023/08/01 06:55:36;;;;;;;3.17;1.40;;;19.00;90.70;;;;;;5011614;28;20025;-79
2023/08/01 06:58:01;;;;;;;3.00;1.30;;;19.00;90.60;;;;;;5040976;28;20025;-79
2023/08/01 07:00:27;;;;;;;2.58;1.23;;;19.00;90.70;;;;;;5031027;28;20056;-78
2023/08/01 07:02:52;;;;;;;2.03;1.10;;;18.90;90.70;;;;;;5022484;28;20072;-79
2023/08/01 07:05:18;;;;;;;2.38;1.20;;;18.90;90.70;;;;;;5039699;28;20021;-80
2023/08/01 07:07:43;;;;;;;2.15;1.25;;;18.90;90.80;;;;;;5040110;28;20029;-78
2023/08/01 07:10:09;;;;;;;3.15;1.45;;;18.90;90.80;;;;;;5023449;28;20030;-79
2023/08/01 07:12:35;;;;;;;3.10;1.30;;;18.90;90.90;;;;;;5039164;28;20033;-79
2023/08/01 07:15:00;;;;;;;3.55;1.50;;;18.90;90.90;;;;;;5034559;28;20018;-78
2023/08/01 07:17:26;;;;;;;2.92;1.40;;;18.90;90.90;;;;;;5032951;28;20573;-78
2023/08/01 07:19:51;;;;;;;3.53;1.27;;;18.90;90.90;;;;;;5037385;28;20030;-78
2023/08/01 07:22:17;;;;;;;2.25;1.30;;;18.90;90.90;;;;;;5039442;28;20068;-79
2023/08/01 07:24:42;;;;;;;2.97;1.55;;;18.90;90.90;;;;;;5020116;28;20645;-78
2023/08/01 07:27:08;;;;;;;3.25;1.40;;;18.90;90.90;;;;;;5017124;28;20022;-78
2023/08/01 07:29:33;;;;;;;2.20;1.10;;;18.90;90.90;;;;;;5000744;28;20112;-78
2023/08/01 07:31:59;;;;;;;3.08;1.40;;;18.90;90.90;;;;;;5020463;28;20029;-78
2023/08/01 07:34:24;;;;;;;3.63;1.40;;;19.00;90.90;;;;;;5019633;28;20029;-78
2023/08/01 07:36:50;;;;;;;2.03;1.23;;;19.00;90.80;;;;;;5019338;28;20034;-79
2023/08/01 07:39:16;;;;;;;2.28;1.23;;;19.00;90.70;;;;;;5015567;28;20006;-78
2023/08/01 07:41:42;;;;;;;2.78;1.42;;;19.00;90.60;;;;;;5015988;28;20057;-79
2023/08/01 07:44:07;;;;;;;3.63;1.30;;;19.10;90.60;;;;;;5017082;28;20076;-78
2023/08/01 07:46:33;;;;;;;2.42;1.10;;;19.10;90.40;;;;;;5018492;28;20053;-79
2023/08/01 07:48:59;;;;;;;2.53;1.45;;;19.10;90.50;;;;;;5035288;28;20025;-78
2023/08/01 07:51:25;;;;;;;2.88;1.33;;;19.10;90.50;;;;;;5034522;28;20025;-78
2023/08/01 07:53:52;;;;;;;3.95;1.30;;;19.00;90.50;;;;;;5034754;28;20433;-78
2023/08/01 07:56:18;;;;;;;2.05;1.20;;;19.00;90.50;;;;;;5022160;28;20426;-79
2023/08/01 07:58:43;;;;;;;2.33;1.27;;;19.00;90.60;;;;;;5031105;28;20026;-80
2023/08/01 08:01:09;;;;;;;2.40;1.27;;;19.00;90.60;;;;;;5018116;28;20029;-78
2023/08/01 08:03:34;;;;;;;1.85;1.20;;;19.00;90.60;;;;;;5018043;28;20031;-78
2023/08/01 08:06:00;;;;;;;2.38;1.30;;;19.10;90.60;;;;;;5028851;28;20040;-78
2023/08/01 08:08:26;;;;;;;2.42;1.10;;;19.00;90.50;;;;;;5017487;28;20030;-78
2023/08/01 08:10:52;;;;;;;2.75;1.42;;;19.10;90.50;;;;;;5035189;28;20021;-79
2023/08/01 08:13:17;;;;;;;2.88;1.40;;;19.10;90.50;;;;;;5033415;28;20017;-79
2023/08/01 08:15:43;;;;;;;2.22;1.30;;;19.10;90.50;;;;;;5018045;28;20029;-79
2023/08/01 08:18:09;;;;;;;2.85;1.35;;;19.10;90.50;;;;;;5035086;28;20052;-80
2023/08/01 08:20:42;;;;;;;3.15;1.20;;;19.10;90.50;;;;;;5034941;28;20044;-78
2023/08/01 08:23:08;;;;;;;2.97;1.42;;;19.10;90.40;;;;;;5034759;28;20028;-78
2023/08/01 08:25:33;;;;;;;3.13;1.40;;;19.20;90.40;;;;;;5034843;28;20057;-78
2023/08/01 08:27:59;;;;;;;3.17;1.40;;;19.20;90.30;;;;;;5034734;28;20037;-79
2023/08/01 08:30:25;;;;;;;2.38;1.30;;;19.20;90.30;;;;;;5034669;28;20036;-78
2023/08/01 08:32:50;;;;;;;2.15;1.27;;;19.30;90.40;;;;;;5016567;28;20029;-78
2023/08/01 08:35:16;;;;;;;2.33;1.35;;;19.20;90.40;;;;;;5018210;28;20367;-78
2023/08/01 08:37:41;;;;;;;2.47;1.20;;;19.20;90.40;;;;;;5022511;28;20029;-78
2023/08/01 08:40:08;;;;;;;2.40;1.50;;;19.10;90.40;;;;;;5032960;28;20057;-78
2023/08/01 08:42:35;;;;;;;3.70;1.50;;;19.10;90.40;;;;;;5033052;28;20026;-78
2023/08/01 08:45:02;;;;;;;2.75;1.38;;;19.20;90.40;;;;;;5031273;28;20026;-78
2023/08/01 08:47:30;;;;;;;2.88;1.20;;;19.20;90.40;;;;;;5029671;28;20014;-78
2023/08/01 08:49:58;;;;;;;1.97;1.27;;;19.20;90.50;;;;;;5024555;28;20025;-78
2023/08/01 08:52:26;;;;;;;1.63;1.10;;;19.10;90.40;;;;;;5016303;28;20051;-79
2023/08/01 08:54:52;;;;;;;2.90;1.52;;;19.10;90.50;;;;;;5024380;28;20029;-82
2023/08/01 08:57:19;;;;;;;1.52;1.20;;;19.10;90.50;;;;;;5035902;28;20435;-82
2023/08/01 08:59:46;;;;;;;2.65;1.35;;;19.10;90.40;;;;;;5031193;28;20033;-80
2023/08/01 09:02:12;;;;;;;2.67;1.40;;;19.20;90.40;;;;;;5048576;28;20092;-83
2023/08/01 09:04:37;;;;;;;2.97;1.25;;;19.10;90.40;;;;;;5045469;28;20029;-77
2023/08/01 09:07:08;;;;;;;3.47;1.40;;;19.10;90.50;;;;;;5047953;28;20037;-80
2023/08/01 09:09:34;;;;;;;2.42;1.42;;;19.10;90.40;;;;;;5038126;28;20041;-82
2023/08/01 09:12:00;;;;;;;2.63;1.40;;;19.20;90.40;;;;;;5045457;28;20569;-82
2023/08/01 09:14:26;;;;;;;1.55;0.98;;;19.20;90.30;;;;;;5046100;28;20032;-80
2023/08/01 09:16:52;;;;;;;2.78;1.30;;;19.20;90.30;;;;;;5023541;28;20029;-81
2023/08/01 09:19:23;;;;;;;2.53;1.30;;;19.30;90.20;;;;;;5039728;28;20045;-80
2023/08/01 09:21:49;;;;;;;1.83;1.13;;;19.30;90.20;;;;;;5048609;28;20116;-83
2023/08/01 09:24:19;;;;;;;2.60;1.40;;;19.30;90.10;;;;;;5046901;28;20052;-82
2023/08/01 09:26:46;;;;;;;2.72;1.40;;;19.40;90.00;;;;;;5027717;28;20464;-82
2023/08/01 09:29:12;;;;;;;2.53;1.20;;;19.40;90.00;;;;;;5036369;28;20100;-83
2023/08/01 09:31:41;;;;;;;1.95;1.10;;;19.40;90.00;;;;;;5043119;28;20032;-77
2023/08/01 09:34:22;;;;;;;3.13;1.30;;;19.40;89.90;;;;;;5045239;28;20022;-80
2023/08/01 09:36:48;;;;;;;;;;;19.50;89.90;;;;;;5033166;28;20010;-80
2023/08/01 09:39:21;;;;;;;2.55;1.30;;;19.50;90.00;;;;;;5042622;28;19931;-83
2023/08/01 09:41:57;;;;;;;2.47;1.30;;;19.50;89.90;;;;;;5033180;28;20508;-82
2023/08/01 09:44:22;;;;;;;3.20;1.50;;;19.50;89.80;;;;;;5049601;28;20025;-79
2023/08/01 09:47:07;;;;;;;2.47;1.30;;;19.50;89.70;;;;;;5025889;28;20053;-80
2023/08/01 09:49:34;;;;;;;2.90;1.23;;;19.50;89.70;;;;;;5044568;28;20060;-81
2023/08/01 09:52:01;;;;;;;2.10;1.10;;;19.50;89.80;;;;;;5046052;28;20056;-80
2023/08/01 09:54:27;;;;;;;2.13;1.25;;;19.50;89.70;;;;;;5047423;28;20022;-82
2023/08/01 09:56:53;;;;;;;2.53;1.20;;;19.50;89.80;;;;;;5036327;28;20421;-79
2023/08/01 09:59:24;;;;;;;1.63;1.20;;;19.40;89.80;;;;;;5034030;28;20022;-82
2023/08/01 10:01:51;;;;;;;3.25;1.10;;;19.40;89.90;;;;;;5046639;28;20105;-82
2023/08/01 10:04:26;;;;;;;2.10;1.20;;;19.40;90.00;;;;;;5026731;28;20029;-79
2023/08/01 10:06:59;;;;;;;2.08;1.15;;;19.40;90.00;;;;;;5042342;28;20061;-82
2023/08/01 10:09:24;;;;;;;1.77;1.10;;;19.30;90.10;;;;;;5034665;28;20021;-79
2023/08/01 10:11:51;;;;;;;3.35;1.38;;;19.30;90.10;;;;;;5042840;28;20036;-78
2023/08/01 10:14:19;;;;;;;2.08;1.17;;;19.30;90.20;;;;;;5042738;28;20021;-80
2023/08/01 10:16:45;;;;;;;1.77;1.10;;;19.30;90.20;;;;;;5025893;28;20022;-80
2023/08/01 10:19:13;;;;;;;1.48;1.00;;;19.30;90.30;;;;;;5025326;28;20493;-80
2023/08/01 10:21:39;;;;;;;2.13;1.20;;;19.30;90.20;;;;;;5042717;28;20033;-76
2023/08/01 10:24:06;;;;;;;1.75;1.17;;;19.30;90.20;;;;;;5041064;28;20036;-81
2023/08/01 10:26:32;;;;;;;2.10;1.13;;;19.30;90.50;;;;;;5027355;28;20033;-79
2023/08/01 10:28:59;;;;;;;2.92;1.27;;;19.30;90.20;;;;;;5032834;28;20113;-79
2023/08/01 10:31:25;;;;;;;1.92;1.20;;;19.30;90.30;;;;;;5040716;28;20036;-80
2023/08/01 10:33:52;;;;;;;2.47;1.20;;;19.30;90.30;;;;;;5040226;28;20018;-79
2023/08/01 10:36:23;;;;;;;2.20;1.30;;;19.30;90.40;;;;;;5023798;28;20030;-79
2023/08/01 10:38:57;;;;;;;2.22;1.33;;;19.30;90.40;;;;;;5030029;28;20022;-79
2023/08/01 10:41:36;;;;;;;1.70;1.00;;;19.30;90.30;;;;;;5022634;28;20677;-79
2023/08/01 10:44:12;;;;;;;2.53;1.35;;;19.30;90.30;;;;;;5021993;28;20037;-79
2023/08/01 10:46:59;;;;;;;1.65;1.10;;;19.30;90.30;;;;;;5020965;28;20494;-78
2023/08/01 10:49:44;;;;;;;1.85;1.17;;;19.40;90.20;;;;;;5039712;28;20033;-79
2023/08/01 10:52:26;;;;;;;2.78;1.30;;;19.40;90.10;;;;;;5040852;28;20029;-78
2023/08/01 10:55:05;;;;;;;3.00;1.20;;;19.40;90.10;;;;;;5019827;28;20022;-82
2023/08/01 10:57:34;;;;;;;2.05;1.40;;;19.40;90.20;;;;;;5001465;28;20125;-82
2023/08/01 10:59:59;;;;;;;2.75;1.20;;;19.40;90.20;;;;;;5019608;28;20037;-80
2023/08/01 11:02:27;;;;;;;2.78;1.40;;;19.30;90.20;;;;;;5016557;28;20022;-79
2023/08/01 11:05:04;;;;;;;2.50;1.30;;;19.40;90.30;;;;;;5021358;28;20086;-82
2023/08/01 11:07:30;;;;;;;2.25;1.20;;;19.30;90.30;;;;;;5019775;28;20021;-80
2023/08/01 11:10:13;;;;;;;2.75;1.30;;;19.30;90.30;;;;;;5036505;28;20120;-81
2023/08/01 11:12:41;;;;;;;1.45;1.00;;;19.30;90.40;;;;;;5036684;28;20025;-80
2023/08/01 11:15:09;;;;;;;1.80;1.20;;;19.30;90.40;;;;;;5032142;28;20045;-80
2023/08/01 11:17:36;;;;;;;1.90;1.13;;;19.30;90.40;;;;;;5037987;28;20040;-78
2023/08/01 11:20:08;;;;;;;2.40;1.30;;;19.30;90.40;;;;;;5019793;28;20558;-78
2023/08/01 11:22:34;;;;;;;2.13;1.27;;;19.30;90.30;;;;;;5019942;28;20029;-79
2023/08/01 11:25:00;;;;;;;1.80;1.17;;;19.30;90.30;;;;;;5018703;28;20025;-81
2023/08/01 11:27:26;;;;;;;2.65;1.23;;;19.30;90.30;;;;;;5027107;28;20025;-78
2023/08/01 11:29:53;;;;;;;2.40;1.30;;;19.30;90.20;;;;;;5019149;28;20025;-79
2023/08/01 11:32:20;;;;;;;2.45;1.30;;;19.30;90.20;;;;;;5035868;28;20029;-79
2023/08/01 11:34:46;;;;;;;1.90;1.17;;;19.30;90.20;;;;;;5034531;28;20502;-79
2023/08/01 11:37:19;;;;;;;1.92;1.23;;;19.30;90.10;;;;;;5036710;28;20035;-78
2023/08/01 11:39:46;;;;;;;2.28;1.38;;;19.40;90.10;;;;;;5017767;28;20045;-78
2023/08/01 11:42:17;;;;;;;2.58;1.40;;;19.40;90.10;;;;;;5019439;28;20037;-79
2023/08/01 11:44:44;;;;;;;2.15;1.25;;;19.40;90.00;;;;;;5035651;28;20084;-78
2023/08/01 11:47:17;;;;;;;3.38;1.42;;;19.40;90.00;;;;;;5036403;28;20026;-79
2023/08/01 11:49:48;;;;;;;2.55;1.30;;;19.40;90.10;;;;;;5016860;28;20035;-77
2023/08/01 11:52:27;;;;;;;2.58;1.30;;;19.40;90.10;;;;;;5018134;28;20022;-81
2023/08/01 11:54:54;;;;;;;2.05;1.10;;;19.40;90.10;;;;;;5032284;28;20512;-79
2023/08/01 11:57:21;;;;;;;2.90;1.40;;;19.40;90.10;;;;;;5003436;28;20027;-78
2023/08/01 11:59:52;;;;;;;2.42;1.20;;;19.40;90.10;;;;;;5017686;28;20021;-78
2023/08/01 12:02:24;;;;;;;;;;;19.40;90.10;;;;;;5034901;28;20030;-79
2023/08/01 12:04:50;;;;;;;1.92;1.10;;;19.40;90.10;;;;;;5034645;28;19905;-78
2023/08/01 12:07:16;;;;;;;2.20;1.10;;;19.40;90.10;;;;;;5034709;28;20036;-78
2023/08/01 12:09:41;;;;;;;1.98;1.20;;;19.40;90.10;;;;;;5017028;28;20116;-76
2023/08/01 12:12:09;;;;;;;2.53;1.33;;;19.40;90.40;;;;;;5016826;28;20513;-79
2023/08/01 12:14:40;;;;;;;2.35;1.30;;;19.40;90.20;;;;;;5016415;28;20021;-79
2023/08/01 12:17:05;;;;;;;2.88;1.40;;;19.30;90.20;;;;;;5016499;28;20054;-78
2023/08/01 12:19:33;;;;;;;3.42;1.50;;;19.30;90.20;;;;;;5013275;28;20560;-78
2023/08/01 12:21:59;;;;;;;2.05;1.27;;;19.40;90.20;;;;;;4996827;28;20109;-78
2023/08/01 12:24:24;;;;;;;2.08;1.20;;;19.30;90.20;;;;;;5014441;28;20568;-78
2023/08/01 12:26:50;;;;;;;2.05;1.30;;;19.30;90.20;;;;;;5024009;28;20096;-79
2023/08/01 12:29:15;;;;;;;2.72;1.23;;;19.30;90.30;;;;;;5018118;28;20032;-79
2023/08/01 12:31:41;;;;;;;2.38;1.30;;;19.30;90.30;;;;;;5032150;28;20049;-76
2023/08/01 12:34:07;;;;;;;2.20;1.30;;;19.30;90.30;;;;;;5031636;28;20048;-84
2023/08/01 12:36:32;;;;;;;2.63;1.40;;;19.30;90.30;;;;;;5020262;28;20026;-82
2023/08/01 12:38:58;;;;;;;2.25;1.25;;;19.30;90.40;;;;;;5031583;28;20053;-81
2023/08/01 12:41:23;;;;;;;3.20;1.50;;;19.30;90.40;;;;;;5048546;28;20052;-81
2023/08/01 12:43:49;;;;;;;2.40;1.20;;;19.30;90.40;;;;;;5047701;28;20536;-80
2023/08/01 12:46:15;;;;;;;1.83;1.20;;;19.30;90.40;;;;;;5040091;28;20083;-80